Time;durP1;ratioP1;P1;durP2;ratioP2;P2;SDS_P1;SDS_P2;PMS_P1;PMS_P2;Temp;Humidity;BMP_temperature;BMP_pressure;BME280_temperature;BME280_humidity;BME280_pressure;Samples;Min_cycle;Max_cycle;Signal;HPM_P1;HPM_P2
2021/10/31 00:00:57;;;;;;;8.85;6.78;;;12.00;99.90;;;;;;4924799;29;20047;-83
2021/10/31 00:03:22;;;;;;;6.88;5.70;;;12.10;99.90;;;;;;4913206;29;20039;-83
2021/10/31 00:05:48;;;;;;;7.28;5.65;;;12.00;99.90;;;;;;4927427;29;20082;-84
2021/10/31 00:08:13;;;;;;;8.48;7.07;;;12.10;99.90;;;;;;4912859;29;20453;-84
2021/10/31 00:10:39;;;;;;;8.10;5.55;;;12.00;99.90;;;;;;4913577;29;20031;-83
2021/10/31 00:13:05;;;;;;;6.88;5.13;;;12.00;99.90;;;;;;4915030;29;20519;-83
2021/10/31 00:15:30;;;;;;;7.07;5.03;;;12.10;99.90;;;;;;4907203;29;20715;-84
2021/10/31 00:17:56;;;;;;;6.97;5.72;;;12.00;99.90;;;;;;4929772;29;20035;-84
2021/10/31 00:20:21;;;;;;;8.85;6.30;;;11.90;99.90;;;;;;4913851;29;20043;-83
2021/10/31 00:22:47;;;;;;;9.45;6.63;;;11.90;99.90;;;;;;4926783;29;20043;-83
2021/10/31 00:25:13;;;;;;;7.85;5.35;;;11.90;99.90;;;;;;4915869;28;20065;-83
2021/10/31 00:27:39;;;;;;;8.75;6.13;;;11.90;99.90;;;;;;4931247;29;20051;-83
2021/10/31 00:30:05;;;;;;;7.03;5.25;;;11.90;99.90;;;;;;4907684;29;20098;-83
2021/10/31 00:32:31;;;;;;;9.25;6.00;;;12.00;99.90;;;;;;4936012;28;20027;-83
2021/10/31 00:34:56;;;;;;;8.90;6.70;;;12.00;99.90;;;;;;4930233;29;20035;-83
2021/10/31 00:37:22;;;;;;;7.53;5.80;;;12.00;99.90;;;;;;4918178;29;20027;-83
2021/10/31 00:39:47;;;;;;;7.63;5.35;;;11.90;99.90;;;;;;4945201;28;20090;-84
2021/10/31 00:42:13;;;;;;;5.35;1.65;;;11.90;99.90;;;;;;4919734;29;20047;-83
2021/10/31 00:44:38;;;;;;;9.02;4.60;;;11.90;99.90;;;;;;4903627;29;20486;-83
2021/10/31 00:47:04;;;;;;;7.65;5.93;;;11.90;99.90;;;;;;4919874;29;20039;-83
2021/10/31 00:49:30;;;;;;;7.50;5.65;;;11.90;99.90;;;;;;4915584;29;20054;-83
2021/10/31 00:51:55;;;;;;;7.95;6.15;;;11.90;99.90;;;;;;4919690;29;20514;-83
2021/10/31 00:54:21;;;;;;;7.43;5.88;;;11.90;99.90;;;;;;4917523;29;20635;-83
2021/10/31 00:56:46;;;;;;;10.48;6.90;;;11.80;99.90;;;;;;4903006;28;20078;-83
2021/10/31 00:59:12;;;;;;;6.45;5.30;;;11.80;99.90;;;;;;4919752;28;20098;-83
2021/10/31 01:01:38;;;;;;;10.35;6.43;;;11.80;99.90;;;;;;4945729;28;20031;-83
2021/10/31 01:04:04;;;;;;;7.55;5.30;;;11.70;99.90;;;;;;4896926;28;20121;-83
2021/10/31 01:06:49;;;;;;;8.00;6.43;;;11.70;99.90;;;;;;4914166;29;20107;-83
2021/10/31 01:09:19;;;;;;;7.45;5.80;;;11.60;99.90;;;;;;4939654;28;20457;-83
2021/10/31 01:12:14;;;;;;;9.98;6.60;;;11.60;99.90;;;;;;4934026;28;20043;-83
2021/10/31 01:14:43;;;;;;;7.38;4.72;;;11.60;99.90;;;;;;4933275;29;20039;-83
2021/10/31 01:17:38;;;;;;;8.77;5.93;;;11.60;99.90;;;;;;4910635;29;20042;-83
2021/10/31 01:20:36;;;;;;;9.20;6.35;;;11.60;99.90;;;;;;4931022;29;20046;-83
2021/10/31 01:23:23;;;;;;;7.38;4.97;;;11.60;99.90;;;;;;4926299;29;20163;-83
2021/10/31 01:26:02;;;;;;;8.07;4.80;;;11.60;99.90;;;;;;4924362;29;20107;-83
2021/10/31 01:28:52;;;;;;;12.23;5.53;;;11.60;99.90;;;;;;4927219;29;20056;-83
2021/10/31 01:31:33;;;;;;;9.35;5.45;;;11.50;99.90;;;;;;4922074;29;20032;-83
2021/10/31 01:34:13;;;;;;;7.25;5.40;;;11.40;99.90;;;;;;4912510;29;20028;-83
2021/10/31 01:36:51;;;;;;;10.30;5.47;;;11.40;99.90;;;;;;4936467;28;20028;-83
2021/10/31 01:39:21;;;;;;;12.05;6.07;;;11.40;99.90;;;;;;4924184;29;20039;-83
2021/10/31 01:42:05;;;;;;;8.70;5.85;;;11.50;99.90;;;;;;4932256;29;20035;-82
2021/10/31 01:44:58;;;;;;;11.30;5.47;;;11.40;99.90;;;;;;4939971;29;20428;-83
2021/10/31 01:47:49;;;;;;;9.40;5.22;;;11.30;99.90;;;;;;4926890;29;20035;-82
2021/10/31 01:50:37;;;;;;;7.43;5.22;;;11.30;99.90;;;;;;4907520;29;20063;-83
2021/10/31 01:53:07;;;;;;;7.10;5.13;;;11.30;99.90;;;;;;4912665;29;20492;-83
2021/10/31 01:55:36;;;;;;;8.00;5.55;;;11.30;99.90;;;;;;4893124;29;20042;-83
2021/10/31 01:58:02;;;;;;;7.88;5.10;;;11.30;99.90;;;;;;4898082;29;20468;-83
2021/10/31 02:00:31;;;;;;;6.32;4.47;;;11.30;99.90;;;;;;4940041;28;20040;-82
2021/10/31 02:02:57;;;;;;;8.00;4.75;;;11.20;99.90;;;;;;4928965;28;20043;-83
2021/10/31 02:05:24;;;;;;;12.30;5.28;;;11.20;99.90;;;;;;4928087;29;20044;-83
2021/10/31 02:07:52;;;;;;;5.55;4.53;;;11.10;99.90;;;;;;4915954;29;20134;-83
2021/10/31 02:10:19;;;;;;;9.60;5.10;;;11.20;99.90;;;;;;4912873;29;20079;-83
2021/10/31 02:12:45;;;;;;;7.07;4.78;;;11.20;99.90;;;;;;4925663;29;20092;-83
2021/10/31 02:15:12;;;;;;;8.18;4.38;;;11.20;99.90;;;;;;4897329;29;20130;-83
2021/10/31 02:17:38;;;;;;;6.65;4.50;;;11.20;99.90;;;;;;4910838;29;20519;-83
2021/10/31 02:20:04;;;;;;;8.25;4.65;;;11.10;99.90;;;;;;4926545;29;20039;-83
2021/10/31 02:22:30;;;;;;;9.13;4.82;;;11.10;99.90;;;;;;4911402;29;20043;-82
2021/10/31 02:24:56;;;;;;;6.30;4.20;;;11.00;99.90;;;;;;4927239;29;20127;-83
2021/10/31 02:27:23;;;;;;;11.80;4.90;;;11.00;99.90;;;;;;4895126;29;20461;-83
2021/10/31 02:29:54;;;;;;;5.50;4.18;;;10.90;99.90;;;;;;4927282;29;20127;-83
2021/10/31 02:32:22;;;;;;;7.68;4.20;;;11.00;99.90;;;;;;4891991;29;20052;-83
2021/10/31 02:34:48;;;;;;;5.88;4.00;;;10.90;99.90;;;;;;4925867;29;20123;-83
2021/10/31 02:37:14;;;;;;;6.72;3.65;;;10.70;99.90;;;;;;4931255;29;20686;-83
2021/10/31 02:39:39;;;;;;;6.88;4.20;;;10.80;99.90;;;;;;4940192;28;20031;-83
2021/10/31 02:42:05;;;;;;;7.93;4.57;;;10.70;99.90;;;;;;4929102;28;20043;-83
2021/10/31 02:44:31;;;;;;;11.27;5.07;;;10.70;99.90;;;;;;4897804;29;20107;-83
2021/10/31 02:46:56;;;;;;;9.43;4.47;;;10.70;99.90;;;;;;4920605;29;20032;-83
2021/10/31 02:49:22;;;;;;;5.43;4.03;;;10.60;99.90;;;;;;4906516;29;20123;-84
2021/10/31 02:52:00;;;;;;;6.75;3.97;;;10.70;99.90;;;;;;4911504;29;20034;-83
2021/10/31 02:54:40;;;;;;;8.95;4.55;;;10.70;99.90;;;;;;4928472;29;20051;-83
2021/10/31 02:57:14;;;;;;;11.05;5.28;;;10.70;99.90;;;;;;4924442;29;20050;-83
2021/10/31 02:59:51;;;;;;;7.70;4.53;;;10.70;99.90;;;;;;4935524;28;20032;-82
2021/10/31 03:02:17;;;;;;;6.05;4.13;;;10.70;99.90;;;;;;4912140;28;20461;-83
2021/10/31 03:04:43;;;;;;;8.48;5.30;;;10.60;99.90;;;;;;4925174;29;20115;-83
2021/10/31 03:07:09;;;;;;;7.57;4.63;;;10.60;99.90;;;;;;4910412;29;20044;-83
2021/10/31 03:09:35;;;;;;;10.35;5.05;;;10.60;99.90;;;;;;4940693;29;20580;-82
2021/10/31 03:12:02;;;;;;;9.30;5.47;;;10.50;99.90;;;;;;4937139;28;20043;-83
2021/10/31 03:14:27;;;;;;;12.75;5.75;;;10.50;99.90;;;;;;4939096;28;20115;-82
2021/10/31 03:16:53;;;;;;;7.75;5.35;;;10.50;99.90;;;;;;4939332;28;20036;-83
2021/10/31 03:19:18;;;;;;;16.23;6.95;;;10.50;99.90;;;;;;4910302;29;20070;-83
2021/10/31 03:21:44;;;;;;;9.70;5.78;;;10.50;99.90;;;;;;4922281;29;20126;-83
2021/10/31 03:24:09;;;;;;;6.88;3.97;;;10.40;99.90;;;;;;4901855;29;20039;-83
2021/10/31 03:26:35;;;;;;;8.35;5.85;;;10.50;99.90;;;;;;4947402;28;20039;-82
2021/10/31 03:29:00;;;;;;;10.00;4.75;;;10.50;99.90;;;;;;4927546;29;20087;-83
2021/10/31 03:31:26;;;;;;;6.18;4.18;;;10.50;99.90;;;;;;4910557;29;20039;-83
2021/10/31 03:33:51;;;;;;;6.18;4.28;;;10.50;99.90;;;;;;4926902;29;20115;-84
2021/10/31 03:36:17;;;;;;;5.32;3.90;;;10.50;99.90;;;;;;4912012;28;20232;-83
2021/10/31 03:38:42;;;;;;;5.10;4.15;;;10.50;99.90;;;;;;4912901;29;20456;-84
2021/10/31 03:41:08;;;;;;;7.45;4.78;;;10.50;99.90;;;;;;4911764;29;20039;-83
2021/10/31 03:43:34;;;;;;;9.68;5.72;;;10.50;99.90;;;;;;4908365;29;20087;-83
2021/10/31 03:46:00;;;;;;;12.48;4.03;;;10.50;99.90;;;;;;4927866;29;20035;-83
2021/10/31 03:48:25;;;;;;;8.57;5.00;;;10.50;99.90;;;;;;4929410;29;20042;-83
2021/10/31 03:50:51;;;;;;;7.45;4.70;;;10.50;99.90;;;;;;4912032;29;20028;-84
2021/10/31 03:53:16;;;;;;;6.30;4.43;;;10.50;99.90;;;;;;4913808;29;20047;-84
2021/10/31 03:55:42;;;;;;;7.50;4.72;;;10.50;99.90;;;;;;4927218;29;20047;-83
2021/10/31 03:58:07;;;;;;;8.02;5.32;;;10.50;99.90;;;;;;4910726;29;20036;-84
2021/10/31 04:00:33;;;;;;;5.63;4.35;;;10.40;99.90;;;;;;4908203;29;20032;-84
2021/10/31 04:02:59;;;;;;;6.20;4.47;;;10.40;99.90;;;;;;4925820;28;20079;-83
2021/10/31 04:05:24;;;;;;;8.32;6.15;;;10.40;99.90;;;;;;4931498;29;20040;-83
2021/10/31 04:07:50;;;;;;;11.25;4.68;;;10.40;99.90;;;;;;4930880;29;20523;-83
2021/10/31 04:10:16;;;;;;;8.43;5.18;;;10.40;99.90;;;;;;4931305;29;20403;-83
2021/10/31 04:12:41;;;;;;;7.30;4.57;;;10.40;99.90;;;;;;4929213;29;20028;-84
2021/10/31 04:15:07;;;;;;;9.50;4.68;;;10.40;99.90;;;;;;4900422;29;20039;-83
2021/10/31 04:17:34;;;;;;;5.85;4.20;;;10.40;99.90;;;;;;4917226;29;20042;-83
2021/10/31 04:20:00;;;;;;;6.45;4.35;;;10.40;99.90;;;;;;4917731;29;20032;-83
2021/10/31 04:22:28;;;;;;;5.80;4.65;;;10.40;99.90;;;;;;4930431;28;20131;-84
2021/10/31 04:24:54;;;;;;;8.18;5.72;;;10.30;99.90;;;;;;4929017;28;20043;-84
2021/10/31 04:27:19;;;;;;;7.13;4.88;;;10.40;99.90;;;;;;4914366;29;20036;-84
2021/10/31 04:29:45;;;;;;;8.30;5.03;;;10.40;99.90;;;;;;4930115;29;20035;-84
2021/10/31 04:32:11;;;;;;;7.65;5.13;;;10.40;99.90;;;;;;4900152;29;20043;-83
2021/10/31 04:34:36;;;;;;;10.30;5.50;;;10.40;99.90;;;;;;4914894;29;20115;-84
2021/10/31 04:37:03;;;;;;;9.13;5.78;;;10.40;99.90;;;;;;4913065;29;20179;-83
2021/10/31 04:39:28;;;;;;;9.05;5.05;;;10.40;99.90;;;;;;4929393;29;20032;-84
2021/10/31 04:42:01;;;;;;;9.77;4.70;;;10.40;99.90;;;;;;4931394;29;20032;-82
2021/10/31 04:44:27;;;;;;;11.55;6.07;;;10.30;99.90;;;;;;4931842;29;20040;-83
2021/10/31 04:46:52;;;;;;;9.82;5.68;;;10.30;99.90;;;;;;4942282;28;20038;-83
2021/10/31 04:49:18;;;;;;;7.55;5.35;;;10.30;99.90;;;;;;4904113;28;20264;-83
2021/10/31 04:51:43;;;;;;;6.38;5.05;;;10.30;99.90;;;;;;4925854;29;20096;-84
2021/10/31 04:54:09;;;;;;;8.82;4.85;;;10.30;99.90;;;;;;4899713;29;20070;-83
2021/10/31 04:56:34;;;;;;;9.70;6.32;;;10.30;99.90;;;;;;4915055;29;20039;-83
2021/10/31 04:59:00;;;;;;;7.22;5.13;;;10.30;99.90;;;;;;4912903;29;20034;-83
2021/10/31 05:01:25;;;;;;;6.15;4.45;;;10.30;99.90;;;;;;4944993;28;20055;-84
2021/10/31 05:03:51;;;;;;;8.32;6.00;;;10.30;99.90;;;;;;4927473;29;20028;-84
2021/10/31 05:06:16;;;;;;;12.80;5.78;;;10.20;99.90;;;;;;4913868;29;20136;-83
2021/10/31 05:08:42;;;;;;;9.32;5.63;;;10.20;99.90;;;;;;4926316;29;20189;-84
2021/10/31 05:11:09;;;;;;;8.02;4.45;;;10.20;99.90;;;;;;4898066;28;20047;-83
2021/10/31 05:13:34;;;;;;;7.18;5.25;;;10.20;99.90;;;;;;4931637;28;22043;-84
2021/10/31 05:16:00;;;;;;;8.45;5.10;;;10.20;99.90;;;;;;4908554;28;20040;-83
2021/10/31 05:18:26;;;;;;;6.35;4.60;;;10.20;99.90;;;;;;4910027;29;20032;-84
2021/10/31 05:20:51;;;;;;;9.05;4.78;;;10.10;99.90;;;;;;4912685;29;20035;-84
2021/10/31 05:23:17;;;;;;;7.00;5.32;;;10.20;99.90;;;;;;4898728;28;20035;-83
2021/10/31 05:25:42;;;;;;;6.15;3.67;;;10.20;99.90;;;;;;4929942;29;20099;-83
2021/10/31 05:28:08;;;;;;;7.28;5.03;;;10.20;99.90;;;;;;4899807;29;20036;-83
2021/10/31 05:30:36;;;;;;;9.60;5.25;;;10.20;99.90;;;;;;4927967;29;20489;-84
2021/10/31 05:33:02;;;;;;;5.72;4.18;;;10.20;99.90;;;;;;4911411;29;20110;-84
2021/10/31 05:35:28;;;;;;;5.90;3.83;;;10.10;99.90;;;;;;4940513;29;20067;-84
2021/10/31 05:37:57;;;;;;;5.40;3.72;;;10.10;99.90;;;;;;4938019;28;20098;-83
2021/10/31 05:40:23;;;;;;;6.97;4.03;;;10.20;99.90;;;;;;4914670;29;20070;-84
2021/10/31 05:42:48;;;;;;;6.00;4.10;;;10.20;99.90;;;;;;4927537;29;20067;-83
2021/10/31 05:45:14;;;;;;;7.43;4.88;;;10.20;99.90;;;;;;4914456;29;20031;-83
2021/10/31 05:47:42;;;;;;;6.80;4.05;;;10.20;99.90;;;;;;4929738;29;20036;-84
2021/10/31 05:50:09;;;;;;;10.77;5.43;;;10.20;99.90;;;;;;4913568;29;20090;-83
2021/10/31 05:52:35;;;;;;;5.03;4.45;;;10.20;99.90;;;;;;4928411;29;20032;-83
2021/10/31 05:55:00;;;;;;;4.85;3.80;;;10.20;99.90;;;;;;4927261;29;20091;-83
2021/10/31 05:57:27;;;;;;;5.82;3.97;;;10.20;99.90;;;;;;4914379;29;20765;-83
2021/10/31 05:59:52;;;;;;;6.30;4.25;;;10.20;99.90;;;;;;4928128;29;20461;-83
2021/10/31 06:02:18;;;;;;;5.65;4.20;;;10.20;99.90;;;;;;4926329;29;20111;-83
2021/10/31 06:04:45;;;;;;;5.93;4.85;;;10.20;99.90;;;;;;4909442;29;20111;-84
2021/10/31 06:07:11;;;;;;;7.57;5.97;;;10.20;99.90;;;;;;4913327;29;20512;-83
2021/10/31 06:09:36;;;;;;;5.72;4.35;;;10.10;99.90;;;;;;4930167;29;20043;-83
2021/10/31 06:12:05;;;;;;;6.38;4.85;;;10.20;99.90;;;;;;4928725;29;20031;-83
2021/10/31 06:14:34;;;;;;;8.07;4.13;;;10.20;99.90;;;;;;4913544;29;20044;-83
2021/10/31 06:17:01;;;;;;;5.60;4.20;;;10.30;99.90;;;;;;4912528;28;20032;-84
2021/10/31 06:19:27;;;;;;;8.52;4.80;;;10.10;99.90;;;;;;4907277;29;20036;-84
2021/10/31 06:21:52;;;;;;;9.18;6.10;;;10.20;99.90;;;;;;4922056;29;20035;-84
2021/10/31 06:24:18;;;;;;;9.95;6.53;;;10.20;99.90;;;;;;4910825;29;20031;-84
2021/10/31 06:26:43;;;;;;;6.53;5.10;;;10.10;99.90;;;;;;4914198;29;20034;-84
2021/10/31 06:29:12;;;;;;;8.10;4.93;;;10.10;99.90;;;;;;4896431;29;20476;-84
2021/10/31 06:31:37;;;;;;;9.18;5.00;;;10.10;99.90;;;;;;4914273;29;20031;-84
2021/10/31 06:34:03;;;;;;;7.10;4.40;;;10.10;99.90;;;;;;4941058;29;20385;-83
2021/10/31 06:36:28;;;;;;;8.35;4.65;;;10.10;99.90;;;;;;4924150;29;20039;-83
2021/10/31 06:38:54;;;;;;;4.90;4.15;;;10.20;99.90;;;;;;4925908;29;20028;-83
2021/10/31 06:41:19;;;;;;;4.68;3.75;;;10.20;99.90;;;;;;4940720;28;20036;-83
2021/10/31 06:43:45;;;;;;;7.25;4.72;;;10.20;99.90;;;;;;4909079;29;20020;-83
2021/10/31 06:46:10;;;;;;;8.18;6.30;;;10.20;99.90;;;;;;4901008;29;20089;-83
2021/10/31 06:48:36;;;;;;;8.45;5.10;;;10.20;99.90;;;;;;4927380;29;20046;-84
2021/10/31 06:51:01;;;;;;;6.53;4.60;;;10.20;99.90;;;;;;4942732;28;20086;-84
2021/10/31 06:53:27;;;;;;;7.78;5.45;;;10.20;99.90;;;;;;4927750;29;20119;-84
2021/10/31 06:55:52;;;;;;;8.20;5.75;;;10.30;99.90;;;;;;4911541;29;20448;-83
2021/10/31 06:58:18;;;;;;;6.78;4.80;;;10.20;99.90;;;;;;4910152;29;20032;-83
2021/10/31 07:00:44;;;;;;;5.05;3.88;;;10.20;99.90;;;;;;4911165;29;20055;-83
2021/10/31 07:03:09;;;;;;;7.05;5.07;;;10.20;99.90;;;;;;4910392;29;20737;-83
2021/10/31 07:05:35;;;;;;;7.15;4.55;;;10.20;99.90;;;;;;4923860;29;20782;-84
2021/10/31 07:08:00;;;;;;;6.35;4.05;;;10.30;99.90;;;;;;4926801;28;20500;-84
2021/10/31 07:10:26;;;;;;;5.88;4.28;;;10.30;99.90;;;;;;4939339;28;20039;-84
2021/10/31 07:12:51;;;;;;;5.78;3.92;;;10.30;99.90;;;;;;4924777;29;20043;-84
2021/10/31 07:15:17;;;;;;;5.82;3.97;;;10.40;99.90;;;;;;4928505;29;20050;-84
2021/10/31 07:17:43;;;;;;;4.45;3.40;;;10.40;99.90;;;;;;4924387;29;20040;-84
2021/10/31 07:20:10;;;;;;;6.85;4.20;;;10.40;99.90;;;;;;4910443;29;20055;-83
2021/10/31 07:22:36;;;;;;;7.65;4.95;;;10.50;99.90;;;;;;4919993;29;20109;-83
2021/10/31 07:25:03;;;;;;;4.95;4.13;;;10.50;99.90;;;;;;4927780;29;20523;-84
2021/10/31 07:27:29;;;;;;;6.00;4.72;;;10.50;99.90;;;;;;4923961;29;20030;-84
2021/10/31 07:29:54;;;;;;;6.97;4.63;;;10.70;99.90;;;;;;4921150;29;20043;-84
2021/10/31 07:32:20;;;;;;;6.88;4.78;;;10.70;99.90;;;;;;4913161;29;20031;-83
2021/10/31 07:34:46;;;;;;;7.07;4.38;;;10.60;99.90;;;;;;4935748;28;20031;-84
2021/10/31 07:37:11;;;;;;;5.45;3.92;;;10.60;99.90;;;;;;4925905;29;20056;-83
2021/10/31 07:39:38;;;;;;;6.00;3.67;;;10.70;99.90;;;;;;4931205;29;20047;-84
2021/10/31 07:42:04;;;;;;;5.57;3.53;;;10.70;99.90;;;;;;4892619;29;20106;-84
2021/10/31 07:44:29;;;;;;;4.03;2.78;;;10.90;99.90;;;;;;4909421;29;20130;-84
2021/10/31 07:46:55;;;;;;;6.18;2.70;;;10.90;99.90;;;;;;4924358;28;20102;-83
2021/10/31 07:49:21;;;;;;;5.50;3.13;;;10.90;99.90;;;;;;4928419;29;20043;-84
2021/10/31 07:51:47;;;;;;;4.10;3.22;;;10.90;99.90;;;;;;4920521;29;20032;-83
2021/10/31 07:54:13;;;;;;;3.88;2.83;;;11.00;99.90;;;;;;4925834;29;20090;-84
2021/10/31 07:56:39;;;;;;;2.95;2.40;;;10.90;99.90;;;;;;4942212;29;20028;-85
2021/10/31 07:59:05;;;;;;;4.07;2.67;;;10.90;99.90;;;;;;4928411;29;20027;-83
2021/10/31 08:01:30;;;;;;;4.90;2.42;;;10.90;99.90;;;;;;4910329;29;20020;-85
2021/10/31 08:03:56;;;;;;;3.42;2.85;;;10.90;99.90;;;;;;4942305;29;20051;-84
2021/10/31 08:06:22;;;;;;;5.45;2.28;;;11.00;99.90;;;;;;4914175;29;20064;-83
2021/10/31 08:08:47;;;;;;;4.22;2.72;;;11.00;99.90;;;;;;4911029;29;20159;-84
2021/10/31 08:11:13;;;;;;;4.80;2.35;;;11.00;99.90;;;;;;4910591;29;20143;-84
2021/10/31 08:13:39;;;;;;;4.63;2.53;;;11.10;99.90;;;;;;4927475;29;20032;-84
2021/10/31 08:16:05;;;;;;;2.55;2.20;;;11.20;99.90;;;;;;4893394;29;20083;-84
2021/10/31 08:18:30;;;;;;;6.93;2.30;;;11.20;99.90;;;;;;4928458;29;20036;-83
2021/10/31 08:20:56;;;;;;;2.42;2.08;;;11.20;99.90;;;;;;4920998;28;20031;-83
2021/10/31 08:23:22;;;;;;;4.57;2.22;;;11.30;99.90;;;;;;4896767;29;20122;-84
2021/10/31 08:25:48;;;;;;;3.47;2.05;;;11.50;99.90;;;;;;4940773;28;20115;-84
2021/10/31 08:28:15;;;;;;;2.33;1.88;;;11.60;99.90;;;;;;4937957;28;20123;-84
2021/10/31 08:30:54;;;;;;;2.03;1.90;;;11.70;99.90;;;;;;4932986;28;20028;-84
2021/10/31 08:33:23;;;;;;;2.75;1.67;;;11.80;99.90;;;;;;4925932;29;20046;-83
2021/10/31 08:35:49;;;;;;;1.85;1.75;;;11.90;99.90;;;;;;4940742;29;20564;-83
2021/10/31 08:38:14;;;;;;;1.70;1.50;;;11.90;99.90;;;;;;4928685;29;20043;-83
2021/10/31 08:40:43;;;;;;;2.00;1.77;;;12.00;99.90;;;;;;4911883;29;20043;-83
2021/10/31 08:43:09;;;;;;;1.70;1.60;;;12.20;99.90;;;;;;4905235;29;20583;-84
2021/10/31 08:45:39;;;;;;;3.75;1.70;;;12.30;99.90;;;;;;4940564;28;20508;-83
2021/10/31 08:48:04;;;;;;;3.08;1.40;;;12.40;99.90;;;;;;4941365;29;20044;-84
2021/10/31 08:50:30;;;;;;;3.95;1.27;;;12.40;99.90;;;;;;4930976;29;20396;-83
2021/10/31 08:52:56;;;;;;;4.13;1.40;;;12.80;99.90;;;;;;4911795;29;20452;-83
2021/10/31 08:55:21;;;;;;;3.40;1.20;;;12.80;99.90;;;;;;4911212;29;20039;-84
2021/10/31 08:57:47;;;;;;;1.83;1.40;;;12.90;99.90;;;;;;4927619;29;20090;-84
2021/10/31 09:00:13;;;;;;;2.10;1.35;;;12.80;99.90;;;;;;4916998;29;20820;-84
2021/10/31 09:02:39;;;;;;;1.20;1.00;;;13.00;99.90;;;;;;4932864;28;20539;-84
2021/10/31 09:05:06;;;;;;;1.88;0.95;;;13.10;99.90;;;;;;4930785;29;20035;-84
2021/10/31 09:07:31;;;;;;;2.88;1.25;;;13.10;99.90;;;;;;4916024;29;20628;-84
2021/10/31 09:10:00;;;;;;;6.15;1.42;;;13.40;99.90;;;;;;4925672;28;20063;-83
2021/10/31 09:12:26;;;;;;;2.08;1.17;;;13.50;99.90;;;;;;4897283;29;20043;-84
2021/10/31 09:14:51;;;;;;;1.98;1.20;;;13.50;99.90;;;;;;4927653;29;20408;-84
2021/10/31 09:17:17;;;;;;;1.20;0.95;;;13.60;99.90;;;;;;4907961;28;20028;-84
2021/10/31 09:19:45;;;;;;;2.97;1.20;;;13.90;99.90;;;;;;4928431;29;20040;-84
2021/10/31 09:22:11;;;;;;;1.58;1.00;;;14.00;99.90;;;;;;4927597;29;20170;-83
2021/10/31 09:24:37;;;;;;;1.77;1.00;;;14.10;99.90;;;;;;4927622;29;20028;-83
2021/10/31 09:27:03;;;;;;;1.40;1.30;;;14.30;99.90;;;;;;4908458;28;20098;-83
2021/10/31 09:29:29;;;;;;;2.05;1.23;;;14.30;99.90;;;;;;4925796;28;20571;-83
2021/10/31 09:31:56;;;;;;;1.35;1.17;;;14.30;99.90;;;;;;4911510;29;20445;-84
2021/10/31 09:34:21;;;;;;;3.15;1.20;;;14.30;99.90;;;;;;4930573;28;21041;-84
2021/10/31 09:36:47;;;;;;;3.42;0.95;;;14.40;99.90;;;;;;4927062;29;20035;-85
2021/10/31 09:39:16;;;;;;;2.92;1.10;;;14.30;99.90;;;;;;4934184;28;20042;-84
2021/10/31 09:41:42;;;;;;;6.80;1.55;;;14.40;99.90;;;;;;4903380;29;20036;-84
2021/10/31 09:44:17;;;;;;;1.70;1.20;;;14.40;99.90;;;;;;4910162;29;20032;-84
2021/10/31 09:46:43;;;;;;;1.20;1.10;;;14.60;99.90;;;;;;4945324;28;20024;-84
2021/10/31 09:49:10;;;;;;;1.75;0.90;;;14.80;99.90;;;;;;4934649;28;20032;-85
2021/10/31 09:51:36;;;;;;;2.80;1.10;;;14.90;99.90;;;;;;4929523;29;20039;-85
2021/10/31 09:54:03;;;;;;;1.75;0.90;;;15.00;99.90;;;;;;4929696;29;20028;-85
2021/10/31 09:56:28;;;;;;;1.83;1.15;;;15.10;99.90;;;;;;4915233;29;20414;-82
2021/10/31 09:59:00;;;;;;;4.32;1.13;;;15.10;99.90;;;;;;4942786;28;20043;-83
2021/10/31 10:01:48;;;;;;;1.30;1.00;;;15.30;99.90;;;;;;4911146;29;20399;-84
2021/10/31 10:04:34;;;;;;;1.10;1.00;;;15.50;99.90;;;;;;4924177;29;20524;-84
2021/10/31 10:07:02;;;;;;;1.08;0.98;;;15.70;99.90;;;;;;4897296;29;20040;-83
2021/10/31 10:09:30;;;;;;;2.00;1.20;;;16.00;99.90;;;;;;4896281;29;20059;-83
2021/10/31 10:11:56;;;;;;;2.40;1.10;;;16.10;99.90;;;;;;4930843;29;20028;-83
2021/10/31 10:14:27;;;;;;;1.30;0.98;;;16.20;99.90;;;;;;4902297;29;20563;-83
2021/10/31 10:17:01;;;;;;;3.17;1.48;;;16.50;99.90;;;;;;4897136;29;20077;-84
2021/10/31 10:19:28;;;;;;;1.83;1.50;;;16.40;99.90;;;;;;4920200;29;20452;-83
2021/10/31 10:21:59;;;;;;;2.83;1.77;;;16.30;99.90;;;;;;4905078;29;20107;-85
2021/10/31 10:24:24;;;;;;;3.65;1.27;;;16.50;99.90;;;;;;4936843;28;20039;-84
2021/10/31 10:26:50;;;;;;;1.73;1.25;;;16.50;99.90;;;;;;4935662;28;20643;-84
2021/10/31 10:29:19;;;;;;;2.60;0.98;;;16.80;99.90;;;;;;4901583;29;20028;-84
2021/10/31 10:31:45;;;;;;;2.58;2.00;;;16.90;99.90;;;;;;4894064;28;20749;-84
2021/10/31 10:34:14;;;;;;;3.40;1.58;;;16.90;99.90;;;;;;4912416;29;20028;-84
2021/10/31 10:36:45;;;;;;;1.67;1.30;;;17.10;99.90;;;;;;4907531;29;20035;-84
2021/10/31 10:39:17;;;;;;;1.38;1.27;;;17.10;99.90;;;;;;4911998;29;20036;-84
2021/10/31 10:41:44;;;;;;;4.97;1.98;;;17.10;99.90;;;;;;4925488;29;20055;-84
2021/10/31 10:44:16;;;;;;;2.88;2.05;;;16.90;99.90;;;;;;4928089;29;20058;-84
2021/10/31 10:46:42;;;;;;;1.98;1.67;;;16.90;99.90;;;;;;4928325;29;20034;-84
2021/10/31 10:49:09;;;;;;;3.38;2.10;;;17.20;99.90;;;;;;4933982;28;20552;-85
2021/10/31 10:51:34;;;;;;;2.10;1.90;;;17.20;99.90;;;;;;4893884;29;20032;-84
2021/10/31 10:54:10;;;;;;;3.53;1.90;;;17.20;99.90;;;;;;4928448;29;20091;-84
2021/10/31 10:56:36;;;;;;;2.47;1.90;;;17.20;99.90;;;;;;4907647;29;20048;-84
2021/10/31 10:59:02;;;;;;;4.07;2.28;;;17.40;99.90;;;;;;4912222;28;20555;-83
2021/10/31 11:01:27;;;;;;;3.38;1.92;;;17.30;99.90;;;;;;4917307;28;20038;-84
2021/10/31 11:03:53;;;;;;;3.08;1.63;;;17.40;99.90;;;;;;4927824;29;20400;-84
2021/10/31 11:06:19;;;;;;;2.97;1.85;;;17.80;99.90;;;;;;4933407;29;20126;-84
2021/10/31 11:08:45;;;;;;;3.08;1.80;;;18.00;99.90;;;;;;4940206;28;20055;-84
2021/10/31 11:11:12;;;;;;;2.42;1.90;;;18.00;99.90;;;;;;4914989;29;20036;-84
2021/10/31 11:13:49;;;;;;;2.83;1.88;;;17.90;99.90;;;;;;4919269;29;20059;-84
2021/10/31 11:16:15;;;;;;;2.92;2.03;;;18.10;99.90;;;;;;4913839;28;20064;-84
2021/10/31 11:18:41;;;;;;;4.05;1.70;;;18.10;99.90;;;;;;4909347;29;20047;-84
2021/10/31 11:21:07;;;;;;;2.28;1.67;;;18.30;99.90;;;;;;4892198;29;20545;-84
2021/10/31 11:23:33;;;;;;;2.58;1.58;;;18.20;99.90;;;;;;4939408;28;20032;-84
2021/10/31 11:26:05;;;;;;;1.70;1.33;;;18.20;99.90;;;;;;4921631;29;20497;-85
2021/10/31 11:28:30;;;;;;;2.63;1.40;;;18.30;99.90;;;;;;4917865;29;20122;-84
2021/10/31 11:30:56;;;;;;;3.70;1.40;;;18.40;99.90;;;;;;4900989;29;20111;-84
2021/10/31 11:33:22;;;;;;;2.10;1.42;;;18.50;99.90;;;;;;4910990;29;21170;-84
2021/10/31 11:35:47;;;;;;;1.48;1.30;;;18.50;99.10;;;;;;4924812;29;20508;-84
2021/10/31 11:38:20;;;;;;;2.35;1.70;;;18.50;99.90;;;;;;4922656;29;20130;-84
2021/10/31 11:40:49;;;;;;;2.90;1.90;;;18.50;99.90;;;;;;4913881;29;20063;-84
2021/10/31 11:43:22;;;;;;;3.33;1.70;;;18.40;99.90;;;;;;4927437;29;20035;-84
2021/10/31 11:45:49;;;;;;;1.95;1.48;;;18.40;99.90;;;;;;4908125;29;20047;-84
2021/10/31 11:48:19;;;;;;;1.77;1.27;;;18.40;99.50;;;;;;4911559;29;20119;-84
2021/10/31 11:51:04;;;;;;;3.97;1.75;;;18.30;99.30;;;;;;4938727;29;20034;-84
2021/10/31 11:53:51;;;;;;;1.98;1.55;;;18.40;99.80;;;;;;4940248;28;20349;-84
2021/10/31 11:56:23;;;;;;;3.13;1.50;;;18.30;99.40;;;;;;4923695;29;20040;-84
2021/10/31 11:59:07;;;;;;;2.42;1.60;;;18.30;99.70;;;;;;4927305;29;20111;-84
2021/10/31 12:01:50;;;;;;;1.40;1.30;;;18.30;99.70;;;;;;4909984;29;20086;-84
2021/10/31 12:04:35;;;;;;;1.65;1.55;;;18.30;99.90;;;;;;4939514;29;20044;-83
2021/10/31 12:07:11;;;;;;;2.67;2.22;;;18.40;99.90;;;;;;4928197;29;20569;-85
2021/10/31 12:09:36;;;;;;;2.80;1.90;;;18.50;99.90;;;;;;4927569;28;20036;-84
2021/10/31 12:12:08;;;;;;;1.60;1.27;;;18.60;99.90;;;;;;4940624;28;20046;-84
2021/10/31 12:14:47;;;;;;;2.88;1.60;;;18.70;99.60;;;;;;4929805;29;20036;-84
2021/10/31 12:17:13;;;;;;;2.50;1.90;;;18.50;98.90;;;;;;4897096;29;20040;-84
2021/10/31 12:19:40;;;;;;;3.25;1.58;;;18.60;98.80;;;;;;4925191;29;20574;-84
2021/10/31 12:22:09;;;;;;;4.53;1.70;;;18.50;98.50;;;;;;4943894;28;20526;-84
2021/10/31 12:24:48;;;;;;;1.98;1.60;;;18.40;98.50;;;;;;4588853;29;10000211;-83
2021/10/31 12:27:21;;;;;;;2.00;1.80;;;18.40;99.40;;;;;;4919996;29;20126;-83
2021/10/31 12:29:59;;;;;;;2.13;1.75;;;18.30;99.30;;;;;;4927295;29;20457;-83
2021/10/31 12:32:39;;;;;;;4.20;1.63;;;18.40;99.10;;;;;;4913933;29;20091;-83
2021/10/31 12:35:05;;;;;;;;;;;18.40;99.20;;;;;;4940209;28;20389;-82
2021/10/31 12:37:30;;;;;;;2.23;2.03;;;18.40;98.80;;;;;;4909895;29;19938;-83
2021/10/31 12:40:12;;;;;;;2.10;1.55;;;18.40;99.00;;;;;;4941247;28;20044;-82
2021/10/31 12:42:50;;;;;;;2.63;1.30;;;18.40;99.10;;;;;;4945041;28;20044;-82
2021/10/31 12:45:16;;;;;;;2.30;1.70;;;18.30;98.60;;;;;;4928099;29;20528;-83
2021/10/31 12:47:56;;;;;;;1.70;1.60;;;18.40;99.00;;;;;;4926909;29;20028;-83
2021/10/31 12:50:23;;;;;;;2.67;1.85;;;18.40;98.80;;;;;;4915214;29;20079;-83